sensor_id;sensor_type;location;lat;lon;timestamp;P1;durP1;ratioP1;P2;durP2;ratioP2
35907;SDS011;22003;50.320;8.054;2022-08-07T04:01:04;1.88;;;1.52;;
35907;SDS011;22003;50.320;8.054;2022-08-07T04:03:32;3.65;;;1.60;;
35907;SDS011;22003;50.320;8.054;2022-08-07T04:05:58;2.95;;;1.30;;
35907;SDS011;22003;50.320;8.054;2022-08-07T04:08:23;4.28;;;1.25;;
35907;SDS011;22003;50.320;8.054;2022-08-07T04:10:49;3.38;;;1.60;;
35907;SDS011;22003;50.320;8.054;2022-08-07T04:13:14;3.72;;;1.60;;
35907;SDS011;22003;50.320;8.054;2022-08-07T04:15:40;2.13;;;1.75;;
35907;SDS011;22003;50.320;8.054;2022-08-07T04:18:07;2.42;;;1.75;;
35907;SDS011;22003;50.320;8.054;2022-08-07T04:20:35;1.40;;;1.30;;
35907;SDS011;22003;50.320;8.054;2022-08-07T04:23:00;1.88;;;1.63;;
35907;SDS011;22003;50.320;8.054;2022-08-07T04:25:26;1.80;;;1.33;;
35907;SDS011;22003;50.320;8.054;2022-08-07T04:27:51;7.35;;;1.77;;
35907;SDS011;22003;50.320;8.054;2022-08-07T04:30:17;1.92;;;1.27;;
35907;SDS011;22003;50.320;8.054;2022-08-07T04:32:42;2.67;;;1.63;;
35907;SDS011;22003;50.320;8.054;2022-08-07T04:35:08;4.65;;;1.30;;
35907;SDS011;22003;50.320;8.054;2022-08-07T04:37:34;3.30;;;1.40;;
35907;SDS011;22003;50.320;8.054;2022-08-07T04:40:00;2.20;;;1.30;;
35907;SDS011;22003;50.320;8.054;2022-08-07T04:42:26;1.50;;;1.40;;
35907;SDS011;22003;50.320;8.054;2022-08-07T04:44:54;3.90;;;1.30;;
35907;SDS011;22003;50.320;8.054;2022-08-07T04:47:22;2.42;;;1.40;;
35907;SDS011;22003;50.320;8.054;2022-08-07T04:50:15;1.55;;;1.30;;
35907;SDS011;22003;50.320;8.054;2022-08-07T04:55:41;1.85;;;1.40;;
35907;SDS011;22003;50.320;8.054;2022-08-07T04:58:17;2.83;;;1.27;;
35907;SDS011;22003;50.320;8.054;2022-08-07T05:00:51;1.52;;;1.42;;
35907;SDS011;22003;50.320;8.054;2022-08-07T05:03:24;1.88;;;1.27;;
35907;SDS011;22003;50.320;8.054;2022-08-07T05:06:05;1.30;;;1.17;;
35907;SDS011;22003;50.320;8.054;2022-08-07T05:08:36;1.65;;;1.40;;
35907;SDS011;22003;50.320;8.054;2022-08-07T05:14:02;1.40;;;1.30;;
35907;SDS011;22003;50.320;8.054;2022-08-07T05:16:33;1.42;;;1.33;;
35907;SDS011;22003;50.320;8.054;2022-08-07T05:19:04;2.83;;;1.50;;
35907;SDS011;22003;50.320;8.054;2022-08-07T05:21:34;2.97;;;1.60;;
35907;SDS011;22003;50.320;8.054;2022-08-07T05:24:03;2.83;;;1.17;;
35907;SDS011;22003;50.320;8.054;2022-08-07T05:26:33;1.63;;;1.40;;
35907;SDS011;22003;50.320;8.054;2022-08-07T05:29:00;2.45;;;1.92;;
35907;SDS011;22003;50.320;8.054;2022-08-07T05:31:29;3.00;;;1.20;;
35907;SDS011;22003;50.320;8.054;2022-08-07T05:33:57;1.63;;;1.38;;
35907;SDS011;22003;50.320;8.054;2022-08-07T05:36:24;1.60;;;1.10;;
35907;SDS011;22003;50.320;8.054;2022-08-07T05:38:51;2.10;;;1.38;;
35907;SDS011;22003;50.320;8.054;2022-08-07T05:41:17;1.77;;;1.25;;
35907;SDS011;22003;50.320;8.054;2022-08-07T05:43:45;1.10;;;1.00;;
35907;SDS011;22003;50.320;8.054;2022-08-07T05:46:12;3.60;;;1.30;;
35907;SDS011;22003;50.320;8.054;2022-08-07T05:48:40;8.07;;;2.45;;
35907;SDS011;22003;50.320;8.054;2022-08-07T05:51:06;4.30;;;1.15;;
35907;SDS011;22003;50.320;8.054;2022-08-07T05:53:33;4.88;;;1.40;;
35907;SDS011;22003;50.320;8.054;2022-08-07T05:55:59;1.20;;;1.10;;
35907;SDS011;22003;50.320;8.054;2022-08-07T05:58:26;1.95;;;1.10;;
35907;SDS011;22003;50.320;8.054;2022-08-07T06:00:51;1.40;;;1.10;;
35907;SDS011;22003;50.320;8.054;2022-08-07T06:03:21;2.03;;;1.00;;
35907;SDS011;22003;50.320;8.054;2022-08-07T06:05:47;14.93;;;4.60;;
35907;SDS011;22003;50.320;8.054;2022-08-07T06:08:14;1.67;;;1.10;;
35907;SDS011;22003;50.320;8.054;2022-08-07T06:10:40;1.10;;;1.08;;
35907;SDS011;22003;50.320;8.054;2022-08-07T06:13:05;3.15;;;1.25;;
35907;SDS011;22003;50.320;8.054;2022-08-07T06:15:30;5.38;;;1.25;;
35907;SDS011;22003;50.320;8.054;2022-08-07T06:17:59;1.40;;;1.30;;
35907;SDS011;22003;50.320;8.054;2022-08-07T06:20:26;3.42;;;1.40;;
35907;SDS011;22003;50.320;8.054;2022-08-07T06:22:52;2.97;;;0.90;;
35907;SDS011;22003;50.320;8.054;2022-08-07T06:25:18;1.92;;;1.10;;
35907;SDS011;22003;50.320;8.054;2022-08-07T06:27:44;1.50;;;1.00;;
35907;SDS011;22003;50.320;8.054;2022-08-07T06:30:09;2.15;;;1.00;;
35907;SDS011;22003;50.320;8.054;2022-08-07T06:32:35;2.58;;;1.10;;
35907;SDS011;22003;50.320;8.054;2022-08-07T06:35:00;1.95;;;1.48;;
35907;SDS011;22003;50.320;8.054;2022-08-07T06:37:26;1.52;;;0.80;;
35907;SDS011;22003;50.320;8.054;2022-08-07T06:39:51;2.10;;;1.20;;
35907;SDS011;22003;50.320;8.054;2022-08-07T06:42:21;3.60;;;1.20;;
35907;SDS011;22003;50.320;8.054;2022-08-07T06:44:50;0.80;;;0.80;;
35907;SDS011;22003;50.320;8.054;2022-08-07T06:47:16;1.15;;;0.90;;
35907;SDS011;22003;50.320;8.054;2022-08-07T06:49:42;3.22;;;0.73;;
35907;SDS011;22003;50.320;8.054;2022-08-07T06:52:09;0.85;;;0.70;;
35907;SDS011;22003;50.320;8.054;2022-08-07T06:54:36;2.20;;;0.60;;
35907;SDS011;22003;50.320;8.054;2022-08-07T06:57:03;1.42;;;0.77;;
35907;SDS011;22003;50.320;8.054;2022-08-07T06:59:38;1.63;;;0.70;;
35907;SDS011;22003;50.320;8.054;2022-08-07T07:02:05;0.98;;;0.70;;
35907;SDS011;22003;50.320;8.054;2022-08-07T07:04:37;2.88;;;0.70;;
35907;SDS011;22003;50.320;8.054;2022-08-07T07:07:03;0.70;;;0.70;;
35907;SDS011;22003;50.320;8.054;2022-08-07T07:09:31;0.63;;;0.60;;
35907;SDS011;22003;50.320;8.054;2022-08-07T07:14:33;1.38;;;0.50;;
35907;SDS011;22003;50.320;8.054;2022-08-07T07:17:03;0.60;;;0.60;;
35907;SDS011;22003;50.320;8.054;2022-08-07T07:19:34;1.17;;;0.70;;
35907;SDS011;22003;50.320;8.054;2022-08-07T07:22:07;0.50;;;0.50;;
35907;SDS011;22003;50.320;8.054;2022-08-07T07:24:34;1.27;;;0.67;;
35907;SDS011;22003;50.320;8.054;2022-08-07T07:27:00;1.13;;;0.52;;
35907;SDS011;22003;50.320;8.054;2022-08-07T07:29:29;0.45;;;0.40;;
35907;SDS011;22003;50.320;8.054;2022-08-07T07:32:00;0.75;;;0.50;;
35907;SDS011;22003;50.320;8.054;2022-08-07T07:34:28;1.83;;;0.90;;
35907;SDS011;22003;50.320;8.054;2022-08-07T07:36:56;0.70;;;0.70;;
35907;SDS011;22003;50.320;8.054;2022-08-07T07:39:24;1.80;;;0.60;;
35907;SDS011;22003;50.320;8.054;2022-08-07T07:41:51;0.63;;;0.43;;
35907;SDS011;22003;50.320;8.054;2022-08-07T07:46:45;0.60;;;0.60;;
35907;SDS011;22003;50.320;8.054;2022-08-07T07:51:40;2.10;;;0.80;;
35907;SDS011;22003;50.320;8.054;2022-08-07T07:54:07;0.40;;;0.40;;
35907;SDS011;22003;50.320;8.054;2022-08-07T07:56:33;1.48;;;0.70;;
35907;SDS011;22003;50.320;8.054;2022-08-07T07:59:00;0.95;;;0.60;;
35907;SDS011;22003;50.320;8.054;2022-08-07T08:01:29;2.35;;;0.57;;
35907;SDS011;22003;50.320;8.054;2022-08-07T08:03:57;0.50;;;0.50;;
35907;SDS011;22003;50.320;8.054;2022-08-07T08:06:26;3.35;;;0.70;;
35907;SDS011;22003;50.320;8.054;2022-08-07T08:08:52;0.55;;;0.55;;
35907;SDS011;22003;50.320;8.054;2022-08-07T08:11:19;0.57;;;0.50;;
35907;SDS011;22003;50.320;8.054;2022-08-07T08:13:46;1.63;;;0.32;;
35907;SDS011;22003;50.320;8.054;2022-08-07T08:16:13;0.63;;;0.55;;
35907;SDS011;22003;50.320;8.054;2022-08-07T08:18:43;1.30;;;0.50;;
35907;SDS011;22003;50.320;8.054;2022-08-07T08:21:10;1.60;;;0.60;;
35907;SDS011;22003;50.320;8.054;2022-08-07T08:24:02;1.02;;;0.50;;
35907;SDS011;22003;50.320;8.054;2022-08-07T08:26:48;0.60;;;0.50;;
35907;SDS011;22003;50.320;8.054;2022-08-07T08:29:29;0.63;;;0.40;;
35907;SDS011;22003;50.320;8.054;2022-08-07T08:32:08;0.43;;;0.40;;
35907;SDS011;22003;50.320;8.054;2022-08-07T08:34:37;0.88;;;0.32;;
35907;SDS011;22003;50.320;8.054;2022-08-07T08:37:04;0.73;;;0.45;;
35907;SDS011;22003;50.320;8.054;2022-08-07T08:39:31;1.58;;;0.45;;
35907;SDS011;22003;50.320;8.054;2022-08-07T08:42:02;3.92;;;0.40;;
35907;SDS011;22003;50.320;8.054;2022-08-07T08:44:47;0.60;;;0.40;;
35907;SDS011;22003;50.320;8.054;2022-08-07T08:47:25;1.30;;;0.77;;
35907;SDS011;22003;50.320;8.054;2022-08-07T08:50:14;0.43;;;0.40;;
35907;SDS011;22003;50.320;8.054;2022-08-07T08:53:05;0.68;;;0.47;;
35907;SDS011;22003;50.320;8.054;2022-08-07T08:55:39;1.92;;;0.40;;
35907;SDS011;22003;50.320;8.054;2022-08-07T08:58:15;0.52;;;0.40;;
35907;SDS011;22003;50.320;8.054;2022-08-07T09:03:28;0.95;;;0.40;;
35907;SDS011;22003;50.320;8.054;2022-08-07T09:05:59;1.85;;;0.40;;
35907;SDS011;22003;50.320;8.054;2022-08-07T09:11:45;0.45;;;0.35;;
35907;SDS011;22003;50.320;8.054;2022-08-07T09:14:37;0.30;;;0.30;;
35907;SDS011;22003;50.320;8.054;2022-08-07T09:17:25;2.40;;;0.68;;
35907;SDS011;22003;50.320;8.054;2022-08-07T09:25:38;2.45;;;0.40;;
35907;SDS011;22003;50.320;8.054;2022-08-07T09:28:14;0.50;;;0.30;;
35907;SDS011;22003;50.320;8.054;2022-08-07T09:30:59;0.85;;;0.30;;
35907;SDS011;22003;50.320;8.054;2022-08-07T09:36:54;0.75;;;0.47;;
35907;SDS011;22003;50.320;8.054;2022-08-07T09:41:58;1.00;;;0.50;;
35907;SDS011;22003;50.320;8.054;2022-08-07T09:44:34;0.50;;;0.50;;
35907;SDS011;22003;50.320;8.054;2022-08-07T09:52:52;1.80;;;0.40;;
35907;SDS011;22003;50.320;8.054;2022-08-07T09:55:25;1.70;;;0.50;;
35907;SDS011;22003;50.320;8.054;2022-08-07T10:06:29;0.40;;;0.40;;
35907;SDS011;22003;50.320;8.054;2022-08-07T10:12:11;0.35;;;0.35;;
35907;SDS011;22003;50.320;8.054;2022-08-07T10:26:29;1.63;;;0.70;;
35907;SDS011;22003;50.320;8.054;2022-08-07T10:29:01;2.20;;;0.50;;
35907;SDS011;22003;50.320;8.054;2022-08-07T10:43:19;0.40;;;0.40;;
35907;SDS011;22003;50.320;8.054;2022-08-07T10:45:47;0.47;;;0.43;;
35907;SDS011;22003;50.320;8.054;2022-08-07T11:16:24;2.08;;;0.57;;
35907;SDS011;22003;50.320;8.054;2022-08-07T11:18:57;1.55;;;0.60;;
35907;SDS011;22003;50.320;8.054;2022-08-07T11:24:50;0.35;;;0.30;;
35907;SDS011;22003;50.320;8.054;2022-08-07T11:27:31;1.45;;;0.47;;
35907;SDS011;22003;50.320;8.054;2022-08-07T11:30:18;0.50;;;0.50;;
35907;SDS011;22003;50.320;8.054;2022-08-07T11:33:01;0.70;;;0.55;;
35907;SDS011;22003;50.320;8.054;2022-08-07T11:35:33;0.40;;;0.40;;
35907;SDS011;22003;50.320;8.054;2022-08-07T11:38:09;0.82;;;0.50;;
35907;SDS011;22003;50.320;8.054;2022-08-07T11:40:45;0.77;;;0.35;;
35907;SDS011;22003;50.320;8.054;2022-08-07T11:43:20;2.47;;;0.88;;
35907;SDS011;22003;50.320;8.054;2022-08-07T11:51:29;1.10;;;0.60;;
35907;SDS011;22003;50.320;8.054;2022-08-07T12:05:17;0.65;;;0.43;;
35907;SDS011;22003;50.320;8.054;2022-08-07T12:07:59;1.20;;;0.38;;
35907;SDS011;22003;50.320;8.054;2022-08-07T12:10:34;0.47;;;0.40;;
35907;SDS011;22003;50.320;8.054;2022-08-07T12:13:49;1.85;;;0.40;;
35907;SDS011;22003;50.320;8.054;2022-08-07T12:16:10;1.48;;;0.50;;
35907;SDS011;22003;50.320;8.054;2022-08-07T12:18:42;0.40;;;0.40;;
35907;SDS011;22003;50.320;8.054;2022-08-07T12:24:06;1.02;;;0.50;;
35907;SDS011;22003;50.320;8.054;2022-08-07T12:26:47;0.50;;;0.40;;
35907;SDS011;22003;50.320;8.054;2022-08-07T12:29:27;0.52;;;0.52;;
35907;SDS011;22003;50.320;8.054;2022-08-07T12:34:34;4.22;;;0.60;;
35907;SDS011;22003;50.320;8.054;2022-08-07T12:37:03;0.88;;;0.60;;
35907;SDS011;22003;50.320;8.054;2022-08-07T12:39:40;1.05;;;0.50;;
35907;SDS011;22003;50.320;8.054;2022-08-07T12:42:09;1.05;;;0.50;;
35907;SDS011;22003;50.320;8.054;2022-08-07T12:44:39;1.15;;;0.47;;
35907;SDS011;22003;50.320;8.054;2022-08-07T12:53:06;1.20;;;0.80;;
35907;SDS011;22003;50.320;8.054;2022-08-07T12:58:30;0.47;;;0.32;;
35907;SDS011;22003;50.320;8.054;2022-08-07T13:06:35;0.90;;;0.57;;
35907;SDS011;22003;50.320;8.054;2022-08-07T13:17:57;0.47;;;0.45;;
35907;SDS011;22003;50.320;8.054;2022-08-07T13:26:50;1.73;;;0.55;;
35907;SDS011;22003;50.320;8.054;2022-08-07T13:32:15;0.93;;;0.55;;
35907;SDS011;22003;50.320;8.054;2022-08-07T13:38:22;0.40;;;0.40;;
35907;SDS011;22003;50.320;8.054;2022-08-07T13:43:47;0.38;;;0.38;;
35907;SDS011;22003;50.320;8.054;2022-08-07T13:49:12;1.13;;;0.68;;
35907;SDS011;22003;50.320;8.054;2022-08-07T13:51:42;1.08;;;0.55;;
35907;SDS011;22003;50.320;8.054;2022-08-07T13:54:13;0.60;;;0.50;;
35907;SDS011;22003;50.320;8.054;2022-08-07T13:56:40;1.08;;;0.60;;
35907;SDS011;22003;50.320;8.054;2022-08-07T13:59:11;1.15;;;0.50;;
35907;SDS011;22003;50.320;8.054;2022-08-07T14:04:19;0.80;;;0.80;;
35907;SDS011;22003;50.320;8.054;2022-08-07T14:06:53;0.50;;;0.47;;
35907;SDS011;22003;50.320;8.054;2022-08-07T14:09:20;0.93;;;0.50;;
35907;SDS011;22003;50.320;8.054;2022-08-07T14:11:49;1.33;;;0.50;;
35907;SDS011;22003;50.320;8.054;2022-08-07T14:14:18;1.30;;;0.50;;
35907;SDS011;22003;50.320;8.054;2022-08-07T14:16:51;1.15;;;0.60;;
35907;SDS011;22003;50.320;8.054;2022-08-07T14:20:08;1.55;;;0.60;;
35907;SDS011;22003;50.320;8.054;2022-08-07T14:22:33;1.55;;;0.73;;
35907;SDS011;22003;50.320;8.054;2022-08-07T14:25:15;0.70;;;0.50;;
35907;SDS011;22003;50.320;8.054;2022-08-07T14:27:45;0.75;;;0.40;;
35907;SDS011;22003;50.320;8.054;2022-08-07T14:30:14;0.65;;;0.43;;
35907;SDS011;22003;50.320;8.054;2022-08-07T14:32:42;1.20;;;0.50;;
35907;SDS011;22003;50.320;8.054;2022-08-07T14:38:03;2.58;;;0.60;;
35907;SDS011;22003;50.320;8.054;2022-08-07T14:40:29;0.40;;;0.40;;
35907;SDS011;22003;50.320;8.054;2022-08-07T14:48:08;0.85;;;0.50;;
35907;SDS011;22003;50.320;8.054;2022-08-07T14:50:35;0.40;;;0.38;;
35907;SDS011;22003;50.320;8.054;2022-08-07T14:53:06;3.22;;;0.57;;
35907;SDS011;22003;50.320;8.054;2022-08-07T14:55:35;0.50;;;0.50;;
35907;SDS011;22003;50.320;8.054;2022-08-07T14:58:02;2.42;;;0.55;;
35907;SDS011;22003;50.320;8.054;2022-08-07T15:00:30;0.32;;;0.25;;
35907;SDS011;22003;50.320;8.054;2022-08-07T15:02:58;0.50;;;0.50;;
35907;SDS011;22003;50.320;8.054;2022-08-07T15:05:29;1.08;;;0.40;;
35907;SDS011;22003;50.320;8.054;2022-08-07T15:10:43;0.52;;;0.40;;
35907;SDS011;22003;50.320;8.054;2022-08-07T15:13:10;0.63;;;0.35;;
35907;SDS011;22003;50.320;8.054;2022-08-07T15:15:43;1.27;;;0.40;;
35907;SDS011;22003;50.320;8.054;2022-08-07T15:18:24;0.40;;;0.40;;
35907;SDS011;22003;50.320;8.054;2022-08-07T15:20:58;2.90;;;0.68;;
35907;SDS011;22003;50.320;8.054;2022-08-07T15:23:27;1.02;;;0.50;;
35907;SDS011;22003;50.320;8.054;2022-08-07T15:25:58;0.40;;;0.40;;
35907;SDS011;22003;50.320;8.054;2022-08-07T15:28:27;0.93;;;0.30;;
35907;SDS011;22003;50.320;8.054;2022-08-07T15:30:55;0.32;;;0.32;;
35907;SDS011;22003;50.320;8.054;2022-08-07T15:33:25;0.88;;;0.50;;
35907;SDS011;22003;50.320;8.054;2022-08-07T15:35:51;0.47;;;0.30;;
35907;SDS011;22003;50.320;8.054;2022-08-07T15:38:29;1.00;;;0.50;;
35907;SDS011;22003;50.320;8.054;2022-08-07T15:40:57;0.70;;;0.50;;
35907;SDS011;22003;50.320;8.054;2022-08-07T15:43:27;2.17;;;0.57;;
35907;SDS011;22003;50.320;8.054;2022-08-07T15:45:58;0.93;;;0.40;;
35907;SDS011;22003;50.320;8.054;2022-08-07T15:48:40;0.52;;;0.40;;
35907;SDS011;22003;50.320;8.054;2022-08-07T15:53:41;0.73;;;0.43;;
35907;SDS011;22003;50.320;8.054;2022-08-07T15:56:09;0.38;;;0.30;;
35907;SDS011;22003;50.320;8.054;2022-08-07T15:58:46;1.15;;;1.05;;
35907;SDS011;22003;50.320;8.054;2022-08-07T16:01:19;0.40;;;0.40;;
35907;SDS011;22003;50.320;8.054;2022-08-07T16:03:49;1.33;;;0.40;;
35907;SDS011;22003;50.320;8.054;2022-08-07T16:06:23;1.42;;;0.40;;
35907;SDS011;22003;50.320;8.054;2022-08-07T16:09:02;1.70;;;0.50;;
35907;SDS011;22003;50.320;8.054;2022-08-07T16:19:55;0.95;;;0.40;;
35907;SDS011;22003;50.320;8.054;2022-08-07T16:22:39;1.70;;;0.40;;
35907;SDS011;22003;50.320;8.054;2022-08-07T16:25:34;1.08;;;0.50;;
35907;SDS011;22003;50.320;8.054;2022-08-07T16:30:53;1.92;;;0.30;;
35907;SDS011;22003;50.320;8.054;2022-08-07T16:33:25;0.47;;;0.30;;
35907;SDS011;22003;50.320;8.054;2022-08-07T16:38:58;2.30;;;0.30;;
35907;SDS011;22003;50.320;8.054;2022-08-07T16:42:02;0.22;;;0.22;;
35907;SDS011;22003;50.320;8.054;2022-08-07T16:47:30;0.40;;;0.30;;
35907;SDS011;22003;50.320;8.054;2022-08-07T16:50:23;0.43;;;0.30;;
35907;SDS011;22003;50.320;8.054;2022-08-07T17:09:45;0.57;;;0.35;;
35907;SDS011;22003;50.320;8.054;2022-08-07T17:20:05;1.05;;;0.30;;
35907;SDS011;22003;50.320;8.054;2022-08-07T17:22:42;1.20;;;0.30;;
35907;SDS011;22003;50.320;8.054;2022-08-07T17:25:21;1.55;;;0.40;;
35907;SDS011;22003;50.320;8.054;2022-08-07T17:30:34;0.22;;;0.22;;
35907;SDS011;22003;50.320;8.054;2022-08-07T17:33:17;0.40;;;0.40;;
35907;SDS011;22003;50.320;8.054;2022-08-07T17:35:59;0.28;;;0.20;;
35907;SDS011;22003;50.320;8.054;2022-08-07T17:38:33;2.17;;;0.40;;
35907;SDS011;22003;50.320;8.054;2022-08-07T17:44:08;0.47;;;0.30;;
35907;SDS011;22003;50.320;8.054;2022-08-07T17:46:39;0.35;;;0.20;;
35907;SDS011;22003;50.320;8.054;2022-08-07T17:49:21;0.98;;;0.22;;
35907;SDS011;22003;50.320;8.054;2022-08-07T17:52:09;0.43;;;0.40;;
35907;SDS011;22003;50.320;8.054;2022-08-07T17:59:46;0.90;;;0.50;;
35907;SDS011;22003;50.320;8.054;2022-08-07T18:02:18;3.53;;;0.30;;
35907;SDS011;22003;50.320;8.054;2022-08-07T18:10:01;0.52;;;0.30;;
35907;SDS011;22003;50.320;8.054;2022-08-07T18:12:39;0.60;;;0.38;;
35907;SDS011;22003;50.320;8.054;2022-08-07T18:15:17;1.33;;;0.43;;
35907;SDS011;22003;50.320;8.054;2022-08-07T18:17:53;1.02;;;0.35;;
35907;SDS011;22003;50.320;8.054;2022-08-07T18:20:27;1.80;;;0.43;;
35907;SDS011;22003;50.320;8.054;2022-08-07T18:23:01;2.22;;;0.43;;
35907;SDS011;22003;50.320;8.054;2022-08-07T18:25:30;0.50;;;0.40;;
35907;SDS011;22003;50.320;8.054;2022-08-07T18:30:30;0.85;;;0.57;;
35907;SDS011;22003;50.320;8.054;2022-08-07T18:41:18;0.60;;;0.60;;
35907;SDS011;22003;50.320;8.054;2022-08-07T18:46:45;0.70;;;0.68;;
35907;SDS011;22003;50.320;8.054;2022-08-07T18:49:19;7.00;;;0.68;;
35907;SDS011;22003;50.320;8.054;2022-08-07T18:55:01;8.93;;;1.92;;
35907;SDS011;22003;50.320;8.054;2022-08-07T18:57:50;9.10;;;1.30;;
35907;SDS011;22003;50.320;8.054;2022-08-07T19:01:25;2.75;;;1.02;;
35907;SDS011;22003;50.320;8.054;2022-08-07T19:03:28;3.45;;;0.57;;
35907;SDS011;22003;50.320;8.054;2022-08-07T19:06:08;4.40;;;1.58;;
35907;SDS011;22003;50.320;8.054;2022-08-07T19:14:47;0.70;;;0.60;;
35907;SDS011;22003;50.320;8.054;2022-08-07T19:17:14;0.98;;;0.60;;
35907;SDS011;22003;50.320;8.054;2022-08-07T19:22:34;0.98;;;0.50;;
35907;SDS011;22003;50.320;8.054;2022-08-07T19:25:23;2.85;;;0.52;;
35907;SDS011;22003;50.320;8.054;2022-08-07T19:27:49;1.52;;;0.85;;
35907;SDS011;22003;50.320;8.054;2022-08-07T19:30:15;4.30;;;1.05;;
35907;SDS011;22003;50.320;8.054;2022-08-07T19:32:41;6.93;;;1.25;;
35907;SDS011;22003;50.320;8.054;2022-08-07T19:35:19;1.10;;;0.60;;
35907;SDS011;22003;50.320;8.054;2022-08-07T19:37:51;0.82;;;0.80;;
35907;SDS011;22003;50.320;8.054;2022-08-07T19:40:22;4.75;;;1.00;;
35907;SDS011;22003;50.320;8.054;2022-08-07T19:42:50;1.58;;;0.52;;
35907;SDS011;22003;50.320;8.054;2022-08-07T19:45:23;1.40;;;0.70;;
35907;SDS011;22003;50.320;8.054;2022-08-07T19:47:52;4.38;;;0.70;;
35907;SDS011;22003;50.320;8.054;2022-08-07T19:50:21;4.03;;;0.55;;
35907;SDS011;22003;50.320;8.054;2022-08-07T19:52:48;6.90;;;1.00;;
35907;SDS011;22003;50.320;8.054;2022-08-07T19:55:20;9.70;;;1.40;;
35907;SDS011;22003;50.320;8.054;2022-08-07T19:57:47;6.95;;;1.08;;
35907;SDS011;22003;50.320;8.054;2022-08-07T20:00:23;6.30;;;0.90;;
35907;SDS011;22003;50.320;8.054;2022-08-07T20:02:52;1.40;;;1.25;;
35907;SDS011;22003;50.320;8.054;2022-08-07T20:05:22;9.27;;;1.13;;
35907;SDS011;22003;50.320;8.054;2022-08-07T20:07:56;4.28;;;0.98;;
35907;SDS011;22003;50.320;8.054;2022-08-07T20:10:25;4.07;;;0.80;;
35907;SDS011;22003;50.320;8.054;2022-08-07T20:12:53;4.22;;;0.65;;
35907;SDS011;22003;50.320;8.054;2022-08-07T20:15:24;2.00;;;0.50;;
35907;SDS011;22003;50.320;8.054;2022-08-07T20:17:52;1.10;;;0.60;;
35907;SDS011;22003;50.320;8.054;2022-08-07T20:20:20;3.42;;;0.50;;
35907;SDS011;22003;50.320;8.054;2022-08-07T20:22:49;2.47;;;0.60;;
35907;SDS011;22003;50.320;8.054;2022-08-07T20:25:19;1.77;;;0.80;;
35907;SDS011;22003;50.320;8.054;2022-08-07T20:27:48;3.22;;;0.50;;
35907;SDS011;22003;50.320;8.054;2022-08-07T20:30:17;1.92;;;0.55;;
35907;SDS011;22003;50.320;8.054;2022-08-07T20:32:43;3.97;;;0.88;;
35907;SDS011;22003;50.320;8.054;2022-08-07T20:35:13;1.52;;;0.73;;
35907;SDS011;22003;50.320;8.054;2022-08-07T20:37:40;0.88;;;0.80;;
35907;SDS011;22003;50.320;8.054;2022-08-07T20:40:11;1.75;;;0.63;;
35907;SDS011;22003;50.320;8.054;2022-08-07T20:42:42;1.15;;;0.70;;
35907;SDS011;22003;50.320;8.054;2022-08-07T20:45:09;0.65;;;0.65;;
35907;SDS011;22003;50.320;8.054;2022-08-07T20:47:38;0.60;;;0.60;;
35907;SDS011;22003;50.320;8.054;2022-08-07T20:50:08;2.67;;;0.80;;
35907;SDS011;22003;50.320;8.054;2022-08-07T20:52:35;0.68;;;0.68;;
35907;SDS011;22003;50.320;8.054;2022-08-07T20:55:01;1.52;;;1.00;;
35907;SDS011;22003;50.320;8.054;2022-08-07T20:57:33;1.15;;;0.80;;
35907;SDS011;22003;50.320;8.054;2022-08-07T21:00:09;3.50;;;0.75;;
35907;SDS011;22003;50.320;8.054;2022-08-07T21:02:43;3.10;;;0.70;;
35907;SDS011;22003;50.320;8.054;2022-08-07T21:05:23;1.38;;;0.80;;
35907;SDS011;22003;50.320;8.054;2022-08-07T21:07:53;1.42;;;1.00;;
35907;SDS011;22003;50.320;8.054;2022-08-07T21:10:21;1.70;;;0.90;;
35907;SDS011;22003;50.320;8.054;2022-08-07T21:12:49;0.80;;;0.70;;
35907;SDS011;22003;50.320;8.054;2022-08-07T21:15:18;1.08;;;0.80;;
35907;SDS011;22003;50.320;8.054;2022-08-07T21:17:47;2.35;;;0.80;;
35907;SDS011;22003;50.320;8.054;2022-08-07T21:20:16;0.93;;;0.90;;
35907;SDS011;22003;50.320;8.054;2022-08-07T21:28:36;4.88;;;0.82;;
35907;SDS011;22003;50.320;8.054;2022-08-07T21:33:59;1.15;;;0.98;;
35907;SDS011;22003;50.320;8.054;2022-08-07T21:36:57;2.50;;;0.73;;
35907;SDS011;22003;50.320;8.054;2022-08-07T21:44:53;0.73;;;0.68;;
35907;SDS011;22003;50.320;8.054;2022-08-07T21:47:29;2.15;;;0.90;;
35907;SDS011;22003;50.320;8.054;2022-08-07T21:53:09;2.85;;;1.23;;
35907;SDS011;22003;50.320;8.054;2022-08-07T22:01:21;1.38;;;0.75;;
35907;SDS011;22003;50.320;8.054;2022-08-07T22:03:57;0.80;;;0.80;;
35907;SDS011;22003;50.320;8.054;2022-08-07T22:06:28;6.22;;;3.22;;
35907;SDS011;22003;50.320;8.054;2022-08-07T22:09:03;1.27;;;1.17;;
35907;SDS011;22003;50.320;8.054;2022-08-07T22:11:32;2.03;;;1.23;;
35907;SDS011;22003;50.320;8.054;2022-08-07T22:14:02;1.10;;;0.98;;
35907;SDS011;22003;50.320;8.054;2022-08-07T22:16:33;1.07;;;1.00;;
35907;SDS011;22003;50.320;8.054;2022-08-07T22:19:18;1.75;;;1.17;;
35907;SDS011;22003;50.320;8.054;2022-08-07T22:21:57;1.67;;;1.10;;
35907;SDS011;22003;50.320;8.054;2022-08-07T22:24:31;1.48;;;1.00;;
35907;SDS011;22003;50.320;8.054;2022-08-07T22:27:02;0.88;;;0.88;;
35907;SDS011;22003;50.320;8.054;2022-08-07T22:29:40;0.80;;;0.80;;
35907;SDS011;22003;50.320;8.054;2022-08-07T22:34:49;1.13;;;1.02;;
35907;SDS011;22003;50.320;8.054;2022-08-07T22:51:31;0.90;;;0.70;;
35907;SDS011;22003;50.320;8.054;2022-08-07T22:59:41;2.13;;;0.98;;
